createdAt,value
2023-04-18T00:00:40.617Z,92845.00
2023-04-18T00:01:40.639Z,92845.00
2023-04-18T00:02:40.759Z,92841.00
2023-04-18T00:03:40.683Z,92843.00
2023-04-18T00:04:40.602Z,92843.00
2023-04-18T00:05:40.537Z,92837.00
2023-04-18T00:06:40.518Z,92837.00
2023-04-18T00:07:40.586Z,92843.00
2023-04-18T00:08:40.489Z,92836.00
2023-04-18T00:09:40.513Z,92837.00
2023-04-18T00:10:40.459Z,92836.00
2023-04-18T00:11:40.442Z,92836.00
2023-04-18T00:12:40.432Z,92837.00
2023-04-18T00:13:40.413Z,92836.00
2023-04-18T00:14:40.394Z,92836.00
2023-04-18T00:15:40.374Z,92834.00
2023-04-18T00:16:40.426Z,92832.00
2023-04-18T00:17:40.464Z,92834.00
2023-04-18T00:18:40.322Z,92834.00
2023-04-18T00:19:40.305Z,92834.00
2023-04-18T00:20:40.284Z,92834.00
2023-04-18T00:21:40.262Z,92832.00
2023-04-18T00:22:40.244Z,92830.00
2023-04-18T00:23:40.222Z,92834.00
2023-04-18T00:24:40.211Z,92836.00
2023-04-18T00:25:40.195Z,92836.00
2023-04-18T00:26:40.163Z,92834.00
2023-04-18T00:27:40.171Z,92836.00
2023-04-18T00:28:40.207Z,92834.00
2023-04-18T00:29:40.107Z,92834.00
2023-04-18T00:30:40.141Z,92832.00
2023-04-18T00:31:40.077Z,92830.00
2023-04-18T00:32:40.129Z,92832.00
2023-04-18T00:33:40.035Z,92832.00
2023-04-18T00:34:40.013Z,92834.00
2023-04-18T00:35:40.016Z,92834.00
2023-04-18T00:36:39.991Z,92834.00
2023-04-18T00:37:39.953Z,92834.00
2023-04-18T00:38:39.932Z,92832.00
2023-04-18T00:39:39.925Z,92834.00
2023-04-18T00:40:39.897Z,92832.00
2023-04-18T00:41:39.881Z,92834.00
2023-04-18T00:42:39.877Z,92832.00
2023-04-18T00:43:39.846Z,92834.00
2023-04-18T00:44:39.834Z,92836.00
2023-04-18T00:45:39.822Z,92836.00
2023-04-18T00:46:39.841Z,92836.00
2023-04-18T00:47:39.807Z,92836.00
2023-04-18T00:48:39.749Z,92836.00
2023-04-18T00:49:39.714Z,92836.00
2023-04-18T00:50:39.698Z,92834.00
2023-04-18T00:51:39.683Z,92834.00
2023-04-18T00:52:39.674Z,92834.00
2023-04-18T00:53:39.680Z,92832.00
2023-04-18T00:54:39.642Z,92830.00
2023-04-18T00:55:39.634Z,92830.00
2023-04-18T00:56:39.605Z,92828.00
2023-04-18T00:57:39.592Z,92830.00
2023-04-18T00:58:39.577Z,92830.00
2023-04-18T00:59:39.562Z,92830.00
2023-04-18T01:00:39.544Z,92832.00
2023-04-18T01:01:39.566Z,92830.00
2023-04-18T01:02:39.649Z,92832.00
2023-04-18T01:03:39.675Z,92830.00
2023-04-18T01:04:39.493Z,92830.00
2023-04-18T01:05:39.481Z,92832.00
2023-04-18T01:06:39.446Z,92830.00
2023-04-18T01:07:39.430Z,92834.00
2023-04-18T01:08:39.414Z,92834.00
2023-04-18T01:09:39.406Z,92834.00
2023-04-18T01:10:39.374Z,92836.00
2023-04-18T01:11:39.358Z,92834.00
2023-04-18T01:12:39.333Z,92836.00
2023-04-18T01:13:39.320Z,92834.00
2023-04-18T01:14:39.312Z,92834.00
2023-04-18T01:15:39.309Z,92832.00
2023-04-18T01:16:39.278Z,92830.00
2023-04-18T01:17:39.292Z,92828.00
2023-04-18T01:18:39.240Z,92826.00
2023-04-18T01:19:39.224Z,92824.00
2023-04-18T01:20:39.203Z,92824.00
2023-04-18T01:21:39.182Z,92824.00
2023-04-18T01:22:39.167Z,92824.00
2023-04-18T01:23:39.154Z,92822.00
2023-04-18T01:24:39.133Z,92822.00
2023-04-18T01:25:39.123Z,92822.00
2023-04-18T01:26:39.114Z,92820.00
2023-04-18T01:27:39.083Z,92820.00
2023-04-18T01:28:39.074Z,92820.00
2023-04-18T01:29:39.140Z,92820.00
2023-04-18T01:30:39.033Z,92820.00
2023-04-18T01:31:39.208Z,92820.00
2023-04-18T01:32:39.278Z,92820.00
2023-04-18T01:33:38.977Z,92820.00
2023-04-18T01:34:38.964Z,92818.00
2023-04-18T01:35:38.994Z,92818.00
2023-04-18T01:36:38.937Z,92816.00
2023-04-18T01:37:38.919Z,92816.00
2023-04-18T01:38:38.896Z,92816.00
2023-04-18T01:39:38.876Z,92818.00
2023-04-18T01:40:38.855Z,92818.00
2023-04-18T01:41:38.853Z,92820.00
2023-04-18T01:42:38.837Z,92818.00
2023-04-18T01:43:38.825Z,92818.00
2023-04-18T01:44:38.814Z,92818.00
2023-04-18T01:45:38.788Z,92818.00
2023-04-18T01:46:38.822Z,92816.00
2023-04-18T01:47:38.787Z,92816.00
2023-04-18T01:48:38.756Z,92816.00
2023-04-18T01:49:38.735Z,92816.00
2023-04-18T01:50:38.699Z,92814.00
2023-04-18T01:51:38.681Z,92816.00
2023-04-18T01:52:38.663Z,92816.00
2023-04-18T01:53:38.636Z,92816.00
2023-04-18T01:54:38.633Z,92816.00
2023-04-18T01:55:38.630Z,92818.00
2023-04-18T01:56:38.597Z,92818.00
2023-04-18T01:57:38.585Z,92818.00
2023-04-18T01:58:38.574Z,92818.00
2023-04-18T01:59:38.555Z,92816.00
2023-04-18T02:00:38.574Z,92818.00
2023-04-18T02:01:38.573Z,92816.00
2023-04-18T02:02:38.600Z,92814.00
2023-04-18T02:03:38.663Z,92816.00
2023-04-18T02:04:38.439Z,92812.00
2023-04-18T02:05:38.422Z,92810.00
2023-04-18T02:06:38.399Z,92810.00
2023-04-18T02:07:38.374Z,92812.00
2023-04-18T02:08:38.369Z,92810.00
2023-04-18T02:09:38.338Z,92810.00
2023-04-18T02:10:38.315Z,92810.00
2023-04-18T02:11:38.282Z,92812.00
2023-04-18T02:12:38.274Z,92810.00
2023-04-18T02:13:38.266Z,92810.00
2023-04-18T02:14:38.224Z,92810.00
2023-04-18T02:15:38.212Z,92810.00
2023-04-18T02:16:38.200Z,92812.00
2023-04-18T02:17:38.195Z,92810.00
2023-04-18T02:18:38.123Z,92810.00
2023-04-18T02:19:38.106Z,92810.00
2023-04-18T02:20:38.073Z,92810.00
2023-04-18T02:21:38.061Z,92812.00
2023-04-18T02:22:38.057Z,92812.00
2023-04-18T02:23:38.033Z,92810.00
2023-04-18T02:24:38.006Z,92812.00
2023-04-18T02:25:38.003Z,92812.00
2023-04-18T02:26:37.988Z,92812.00
2023-04-18T02:27:37.966Z,92812.00
2023-04-18T02:28:37.956Z,92814.00
2023-04-18T02:29:37.939Z,92816.00
2023-04-18T02:30:37.921Z,92814.00
2023-04-18T02:31:37.970Z,92812.00
2023-04-18T02:32:37.958Z,92812.00
2023-04-18T02:33:37.878Z,92814.00
2023-04-18T02:34:37.853Z,92814.00
2023-04-18T02:35:37.836Z,92812.00
2023-04-18T02:36:37.900Z,92812.00
2023-04-18T02:37:37.777Z,92814.00
2023-04-18T02:38:37.760Z,92816.00
2023-04-18T02:39:37.819Z,92818.00
2023-04-18T02:40:37.723Z,92820.00
2023-04-18T02:41:37.693Z,92820.00
2023-04-18T02:42:37.688Z,92820.00
2023-04-18T02:43:37.671Z,92818.00
2023-04-18T02:44:37.659Z,92822.00
2023-04-18T02:45:37.651Z,92824.00
2023-04-18T02:46:37.620Z,92820.00
2023-04-18T02:47:47.005Z,92824.00
2023-04-18T02:48:38.540Z,92824.00
2023-04-18T02:49:37.613Z,92824.00
2023-04-18T02:50:37.365Z,92822.00
2023-04-18T02:51:37.274Z,92824.00
2023-04-18T02:52:37.206Z,92822.00
2023-04-18T02:53:37.127Z,92820.00
2023-04-18T02:54:37.056Z,92820.00
2023-04-18T02:55:36.954Z,92820.00
2023-04-18T02:56:36.871Z,92818.00
2023-04-18T02:57:36.806Z,92816.00
2023-04-18T02:58:36.781Z,92818.00
2023-04-18T02:59:36.752Z,92818.00
2023-04-18T03:00:36.708Z,92816.00
2023-04-18T03:01:36.749Z,92816.00
2023-04-18T03:02:36.784Z,92820.00
2023-04-18T03:03:36.673Z,92818.00
2023-04-18T03:04:36.724Z,92818.00
2023-04-18T03:05:36.635Z,92816.00
2023-04-18T03:06:36.623Z,92818.00
2023-04-18T03:07:36.594Z,92816.00
2023-04-18T03:08:36.655Z,92818.00
2023-04-18T03:09:36.546Z,92816.00
2023-04-18T03:10:36.532Z,92816.00
2023-04-18T03:11:36.511Z,92816.00
2023-04-18T03:12:36.493Z,92816.00
2023-04-18T03:13:36.482Z,92814.00
2023-04-18T03:14:36.470Z,92816.00
2023-04-18T03:15:36.474Z,92818.00
2023-04-18T03:16:36.419Z,92816.00
2023-04-18T03:17:36.438Z,92814.00
2023-04-18T03:18:36.377Z,92814.00
2023-04-18T03:19:36.364Z,92818.00
2023-04-18T03:20:36.355Z,92816.00
2023-04-18T03:21:36.322Z,92814.00
2023-04-18T03:22:36.302Z,92816.00
2023-04-18T03:23:36.297Z,92816.00
2023-04-18T03:24:36.284Z,92816.00
2023-04-18T03:25:36.254Z,92816.00
2023-04-18T03:26:36.231Z,92816.00
2023-04-18T03:27:36.216Z,92816.00
2023-04-18T03:28:36.208Z,92818.00
2023-04-18T03:29:36.170Z,92816.00
2023-04-18T03:30:36.158Z,92818.00
2023-04-18T03:31:36.173Z,92816.00
2023-04-18T03:32:36.149Z,92818.00
2023-04-18T03:33:36.115Z,92818.00
2023-04-18T03:34:36.100Z,92818.00
2023-04-18T03:35:36.070Z,92818.00
2023-04-18T03:36:36.051Z,92818.00
2023-04-18T03:37:36.043Z,92820.00
2023-04-18T03:38:36.022Z,92820.00
2023-04-18T03:39:36.007Z,92820.00
2023-04-18T03:40:36.000Z,92818.00
2023-04-18T03:41:35.980Z,92818.00
2023-04-18T03:42:35.979Z,92816.00
2023-04-18T03:43:35.953Z,92816.00
2023-04-18T03:44:35.935Z,92816.00
2023-04-18T03:45:35.921Z,92818.00
2023-04-18T03:46:35.979Z,92816.00
2023-04-18T03:47:35.906Z,92818.00
2023-04-18T03:48:35.901Z,92816.00
2023-04-18T03:49:35.846Z,92818.00
2023-04-18T03:50:35.823Z,92818.00
2023-04-18T03:51:35.812Z,92820.00
2023-04-18T03:52:35.798Z,92818.00
2023-04-18T03:53:35.774Z,92820.00
2023-04-18T03:54:35.753Z,92822.00
2023-04-18T03:55:35.732Z,92820.00
2023-04-18T03:56:35.729Z,92820.00
2023-04-18T03:57:35.703Z,92820.00
2023-04-18T03:58:35.682Z,92820.00
2023-04-18T03:59:35.665Z,92820.00
2023-04-18T04:00:35.648Z,92822.00
2023-04-18T04:01:35.652Z,92822.00
2023-04-18T04:02:35.819Z,92820.00
2023-04-18T04:03:35.694Z,92822.00
2023-04-18T04:04:35.628Z,92824.00
2023-04-18T04:05:35.557Z,92820.00
2023-04-18T04:06:35.540Z,92820.00
2023-04-18T04:07:35.521Z,92822.00
2023-04-18T04:08:35.500Z,92822.00
2023-04-18T04:09:35.496Z,92824.00
2023-04-18T04:10:35.466Z,92820.00
2023-04-18T04:11:35.437Z,92820.00
2023-04-18T04:12:35.429Z,92822.00
2023-04-18T04:13:35.406Z,92820.00
2023-04-18T04:14:35.406Z,92824.00
2023-04-18T04:15:35.360Z,92824.00
2023-04-18T04:16:35.370Z,92824.00
2023-04-18T04:17:35.361Z,92828.00
2023-04-18T04:18:35.312Z,92826.00
2023-04-18T04:19:35.295Z,92828.00
2023-04-18T04:20:35.273Z,92828.00
2023-04-18T04:21:35.259Z,92826.00
2023-04-18T04:22:35.239Z,92830.00
2023-04-18T04:23:35.223Z,92830.00
2023-04-18T04:24:35.219Z,92830.00
2023-04-18T04:25:35.196Z,92830.00
2023-04-18T04:26:35.261Z,92830.00
2023-04-18T04:27:35.152Z,92830.00
2023-04-18T04:28:35.135Z,92832.00
2023-04-18T04:29:35.116Z,92830.00
2023-04-18T04:30:35.088Z,92830.00
2023-04-18T04:31:35.106Z,92830.00
2023-04-18T04:32:35.071Z,92830.00
2023-04-18T04:33:35.033Z,92828.00
2023-04-18T04:34:35.002Z,92828.00
2023-04-18T04:35:34.982Z,92830.00
2023-04-18T04:36:34.957Z,92830.00
2023-04-18T04:37:34.932Z,92830.00
2023-04-18T04:38:34.907Z,92828.00
2023-04-18T04:39:34.889Z,92830.00
2023-04-18T04:40:34.869Z,92830.00
2023-04-18T04:41:34.860Z,92830.00
2023-04-18T04:42:34.837Z,92830.00
2023-04-18T04:43:34.826Z,92834.00
2023-04-18T04:44:34.863Z,92830.00
2023-04-18T04:45:34.830Z,92830.00
2023-04-18T04:46:34.781Z,92836.00
2023-04-18T04:47:34.797Z,92836.00
2023-04-18T04:48:34.748Z,92836.00
2023-04-18T04:49:34.737Z,92836.00
2023-04-18T04:50:34.723Z,92836.00
2023-04-18T04:51:34.698Z,92836.00
2023-04-18T04:52:34.692Z,92837.00
2023-04-18T04:53:34.675Z,92839.00
2023-04-18T04:54:34.670Z,92837.00
2023-04-18T04:55:34.653Z,92837.00
2023-04-18T04:56:34.623Z,92839.00
2023-04-18T04:57:34.603Z,92839.00
2023-04-18T04:58:34.594Z,92841.00
2023-04-18T04:59:34.561Z,92843.00
2023-04-18T05:00:34.539Z,92843.00
2023-04-18T05:01:34.597Z,92845.00
2023-04-18T05:02:34.597Z,92845.00
2023-04-18T05:03:34.602Z,92849.00
2023-04-18T05:04:34.593Z,92847.00
2023-04-18T05:05:34.468Z,92849.00
2023-04-18T05:06:34.486Z,92849.00
2023-04-18T05:07:34.453Z,92851.00
2023-04-18T05:08:34.410Z,92859.00
2023-04-18T05:09:34.403Z,92859.00
2023-04-18T05:10:34.391Z,92863.00
2023-04-18T05:11:34.376Z,92859.00
2023-04-18T05:12:34.348Z,92863.00
2023-04-18T05:13:34.346Z,92865.00
2023-04-18T05:14:34.323Z,92863.00
2023-04-18T05:15:34.324Z,92867.00
2023-04-18T05:16:34.326Z,92867.00
2023-04-18T05:17:34.300Z,92867.00
2023-04-18T05:18:35.115Z,92867.00
2023-04-18T05:19:34.363Z,92869.00
2023-04-18T05:20:34.248Z,92873.00
2023-04-18T05:21:34.224Z,92869.00
2023-04-18T05:22:34.219Z,92869.00
2023-04-18T05:23:34.209Z,92869.00
2023-04-18T05:24:34.181Z,92871.00
2023-04-18T05:25:34.187Z,92869.00
2023-04-18T05:26:34.156Z,92869.00
2023-04-18T05:27:34.142Z,92871.00
2023-04-18T05:28:34.149Z,92871.00
2023-04-18T05:29:34.121Z,92874.00
2023-04-18T05:30:34.094Z,92873.00
2023-04-18T05:31:34.203Z,92874.00
2023-04-18T05:32:34.073Z,92876.00
2023-04-18T05:33:34.012Z,92874.00
2023-04-18T05:34:33.947Z,92874.00
2023-04-18T05:35:33.896Z,92878.00
2023-04-18T05:36:33.844Z,92876.00
2023-04-18T05:37:33.793Z,92878.00
2023-04-18T05:38:33.755Z,92874.00
2023-04-18T05:39:33.666Z,92878.00
2023-04-18T05:40:33.605Z,92878.00
2023-04-18T05:41:33.535Z,92876.00
2023-04-18T05:42:33.466Z,92874.00
2023-04-18T05:43:33.424Z,92874.00
2023-04-18T05:44:33.327Z,92880.00
2023-04-18T05:45:33.236Z,92876.00
2023-04-18T05:46:33.218Z,92876.00
2023-04-18T05:47:33.091Z,92874.00
2023-04-18T05:48:33.040Z,92876.00
2023-04-18T05:49:32.995Z,92874.00
2023-04-18T05:50:32.934Z,92876.00
2023-04-18T05:51:32.893Z,92878.00
2023-04-18T05:52:32.888Z,92878.00
2023-04-18T05:53:32.868Z,92876.00
2023-04-18T05:54:32.833Z,92876.00
2023-04-18T05:55:32.817Z,92880.00
2023-04-18T05:56:32.793Z,92880.00
2023-04-18T05:57:32.761Z,92878.00
2023-04-18T05:58:32.694Z,92880.00
2023-04-18T05:59:32.600Z,92882.00
2023-04-18T06:00:32.523Z,92882.00
2023-04-18T06:01:32.446Z,92886.00
2023-04-18T06:02:32.535Z,92886.00
2023-04-18T06:03:32.551Z,92888.00
2023-04-18T06:04:32.600Z,92888.00
2023-04-18T06:05:32.303Z,92886.00
2023-04-18T06:06:32.210Z,92890.00
2023-04-18T06:07:32.207Z,92890.00
2023-04-18T06:08:32.197Z,92892.00
2023-04-18T06:09:32.196Z,92894.00
2023-04-18T06:10:32.154Z,92894.00
2023-04-18T06:11:32.126Z,92896.00
2023-04-18T06:12:32.105Z,92894.00
2023-04-18T06:13:32.089Z,92894.00
2023-04-18T06:14:32.051Z,92896.00
2023-04-18T06:15:32.022Z,92898.00
2023-04-18T06:16:32.022Z,92898.00
2023-04-18T06:17:31.991Z,92902.00
2023-04-18T06:18:31.928Z,92902.00
2023-04-18T06:19:31.966Z,92900.00
2023-04-18T06:20:31.842Z,92902.00
2023-04-18T06:21:31.808Z,92900.00
2023-04-18T06:22:31.784Z,92900.00
2023-04-18T06:23:31.735Z,92906.00
2023-04-18T06:24:32.693Z,92906.00
2023-04-18T06:25:31.650Z,92906.00
2023-04-18T06:26:33.221Z,92906.00
2023-04-18T06:27:32.160Z,92906.00
2023-04-18T06:28:31.619Z,92902.00
2023-04-18T06:29:31.483Z,92900.00
2023-04-18T06:30:31.472Z,92900.00
2023-04-18T06:31:31.492Z,92900.00
2023-04-18T06:32:31.445Z,92896.00
2023-04-18T06:33:31.400Z,92896.00
2023-04-18T06:34:31.350Z,92900.00
2023-04-18T06:35:31.314Z,92898.00
2023-04-18T06:36:31.277Z,92898.00
2023-04-18T06:37:31.261Z,92900.00
2023-04-18T06:38:31.234Z,92898.00
2023-04-18T06:39:31.204Z,92896.00
2023-04-18T06:40:31.153Z,92898.00
2023-04-18T06:41:31.112Z,92900.00
2023-04-18T06:42:31.043Z,92898.00
2023-04-18T06:43:31.703Z,92896.00
2023-04-18T06:44:30.903Z,92896.00
2023-04-18T06:45:30.847Z,92898.00
2023-04-18T06:46:30.792Z,92898.00
2023-04-18T06:47:30.700Z,92898.00
2023-04-18T06:48:30.611Z,92898.00
2023-04-18T06:49:30.580Z,92896.00
2023-04-18T06:50:30.566Z,92898.00
2023-04-18T06:51:30.563Z,92896.00
2023-04-18T06:52:30.525Z,92894.00
2023-04-18T06:53:30.509Z,92892.00
2023-04-18T06:54:30.481Z,92896.00
2023-04-18T06:55:30.467Z,92896.00
2023-04-18T06:56:30.437Z,92894.00
2023-04-18T06:57:30.387Z,92894.00
2023-04-18T06:58:30.353Z,92894.00
2023-04-18T06:59:30.304Z,92892.00
2023-04-18T07:00:30.357Z,92892.00
2023-04-18T07:01:30.279Z,92894.00
2023-04-18T07:02:30.244Z,92892.00
2023-04-18T07:03:30.162Z,92890.00
2023-04-18T07:04:30.130Z,92890.00
2023-04-18T07:05:30.017Z,92886.00
2023-04-18T07:06:29.942Z,92888.00
2023-04-18T07:07:29.883Z,92884.00
2023-04-18T07:08:29.821Z,92884.00
2023-04-18T07:09:29.726Z,92884.00
2023-04-18T07:10:29.643Z,92884.00
2023-04-18T07:11:29.545Z,92884.00
2023-04-18T07:12:29.491Z,92884.00
2023-04-18T07:13:29.399Z,92882.00
2023-04-18T07:14:29.300Z,92882.00
2023-04-18T07:15:29.205Z,92882.00
2023-04-18T07:16:29.122Z,92880.00
2023-04-18T07:17:29.090Z,92878.00
2023-04-18T07:18:37.525Z,92876.00
2023-04-18T07:19:29.909Z,92874.00
2023-04-18T07:20:28.851Z,92871.00
2023-04-18T07:21:28.709Z,92876.00
2023-04-18T07:22:29.217Z,92874.00
2023-04-18T07:23:29.288Z,92871.00
2023-04-18T07:24:28.623Z,92871.00
2023-04-18T07:25:28.328Z,92873.00
2023-04-18T07:26:28.204Z,92873.00
2023-04-18T07:27:28.116Z,92873.00
2023-04-18T07:28:28.081Z,92871.00
2023-04-18T07:29:28.057Z,92867.00
2023-04-18T07:30:28.009Z,92867.00
2023-04-18T07:31:27.990Z,92867.00
2023-04-18T07:32:27.917Z,92867.00
2023-04-18T07:33:27.847Z,92865.00
2023-04-18T07:34:27.811Z,92865.00
2023-04-18T07:35:27.771Z,92865.00
2023-04-18T07:36:27.728Z,92863.00
2023-04-18T07:37:27.688Z,92865.00
2023-04-18T07:38:27.669Z,92863.00
2023-04-18T07:39:27.624Z,92863.00
2023-04-18T07:40:27.656Z,92865.00
2023-04-18T07:41:27.556Z,92865.00
2023-04-18T07:42:27.538Z,92865.00
2023-04-18T07:43:27.506Z,92865.00
2023-04-18T07:44:27.475Z,92865.00
2023-04-18T07:45:27.452Z,92865.00
2023-04-18T07:46:27.459Z,92865.00
2023-04-18T07:47:28.253Z,92865.00
2023-04-18T07:48:27.374Z,92865.00
2023-04-18T07:49:27.293Z,92863.00
2023-04-18T07:50:27.252Z,92867.00
2023-04-18T07:51:27.268Z,92867.00
2023-04-18T07:52:27.115Z,92863.00
2023-04-18T07:53:27.080Z,92865.00
2023-04-18T07:54:26.984Z,92863.00
2023-04-18T07:55:26.952Z,92865.00
2023-04-18T07:56:26.842Z,92867.00
2023-04-18T07:57:26.764Z,92863.00
2023-04-18T07:58:26.743Z,92867.00
2023-04-18T07:59:26.609Z,92867.00
2023-04-18T08:00:26.751Z,92863.00
2023-04-18T08:01:26.471Z,92861.00
2023-04-18T08:02:26.512Z,92861.00
2023-04-18T08:03:26.486Z,92863.00
2023-04-18T08:04:28.363Z,92867.00
2023-04-18T08:05:26.166Z,92867.00
2023-04-18T08:06:26.211Z,92865.00
2023-04-18T08:07:25.922Z,92865.00
2023-04-18T08:08:25.825Z,92863.00
2023-04-18T08:09:25.739Z,92865.00
2023-04-18T08:10:25.694Z,92867.00
2023-04-18T08:11:25.519Z,92867.00
2023-04-18T08:12:25.416Z,92869.00
2023-04-18T08:13:25.333Z,92871.00
2023-04-18T08:14:25.230Z,92867.00
2023-04-18T08:15:25.118Z,92871.00
2023-04-18T08:16:25.083Z,92874.00
2023-04-18T08:17:24.950Z,92873.00
2023-04-18T08:18:24.834Z,92867.00
2023-04-18T08:19:24.729Z,92867.00
2023-04-18T08:20:24.632Z,92865.00
2023-04-18T08:21:24.544Z,92865.00
2023-04-18T08:22:24.468Z,92867.00
2023-04-18T08:23:24.354Z,92867.00
2023-04-18T08:24:24.268Z,92871.00
2023-04-18T08:25:24.211Z,92867.00
2023-04-18T08:26:24.128Z,92867.00
2023-04-18T08:27:23.969Z,92867.00
2023-04-18T08:28:23.882Z,92869.00
2023-04-18T08:29:23.790Z,92867.00
2023-04-18T08:30:23.696Z,92869.00
2023-04-18T08:31:23.608Z,92867.00
2023-04-18T08:32:23.514Z,92865.00
2023-04-18T08:33:23.417Z,92865.00
2023-04-18T08:34:23.317Z,92865.00
2023-04-18T08:35:23.220Z,92863.00
2023-04-18T08:36:23.126Z,92861.00
2023-04-18T08:37:23.041Z,92861.00
2023-04-18T08:38:22.926Z,92865.00
2023-04-18T08:39:25.207Z,92865.00
2023-04-18T08:40:22.819Z,92867.00
2023-04-18T08:41:22.725Z,92863.00
2023-04-18T08:42:22.648Z,92861.00
2023-04-18T08:43:22.574Z,92859.00
2023-04-18T08:44:22.477Z,92861.00
2023-04-18T08:45:22.373Z,92859.00
2023-04-18T08:46:22.395Z,92863.00
2023-04-18T08:47:22.255Z,92863.00
2023-04-18T08:48:22.093Z,92867.00
2023-04-18T08:49:22.009Z,92863.00
2023-04-18T08:50:21.962Z,92863.00
2023-04-18T08:51:21.954Z,92863.00
2023-04-18T08:52:21.926Z,92863.00
2023-04-18T08:53:21.893Z,92861.00
2023-04-18T08:54:21.868Z,92865.00
2023-04-18T08:55:21.819Z,92869.00
2023-04-18T08:56:21.781Z,92871.00
2023-04-18T08:57:22.682Z,92865.00
2023-04-18T08:58:21.677Z,92865.00
2023-04-18T08:59:21.618Z,92869.00
2023-04-18T09:00:21.726Z,92865.00
2023-04-18T09:01:21.565Z,92865.00
2023-04-18T09:02:21.537Z,92867.00
2023-04-18T09:03:21.480Z,92867.00
2023-04-18T09:04:21.382Z,92871.00
2023-04-18T09:05:21.265Z,92874.00
2023-04-18T09:06:21.182Z,92873.00
2023-04-18T09:07:21.124Z,92869.00
2023-04-18T09:08:21.040Z,92869.00
2023-04-18T09:09:20.965Z,92869.00
2023-04-18T09:10:20.896Z,92867.00
2023-04-18T09:11:20.826Z,92869.00
2023-04-18T09:12:20.727Z,92865.00
2023-04-18T09:13:20.932Z,92865.00
2023-04-18T09:14:20.573Z,92865.00
2023-04-18T09:15:20.504Z,92863.00
2023-04-18T09:16:20.652Z,92863.00
2023-04-18T09:17:20.331Z,92863.00
2023-04-18T09:18:20.258Z,92863.00
2023-04-18T09:19:20.183Z,92861.00
2023-04-18T09:20:20.097Z,92861.00
2023-04-18T09:21:20.029Z,92859.00
2023-04-18T09:22:20.687Z,92851.00
2023-04-18T09:23:19.867Z,92859.00
2023-04-18T09:24:19.801Z,92861.00
2023-04-18T09:25:20.269Z,92861.00
2023-04-18T09:26:19.656Z,92859.00
2023-04-18T09:27:19.594Z,92851.00
2023-04-18T09:28:19.536Z,92849.00
2023-04-18T09:29:19.484Z,92851.00
2023-04-18T09:30:19.405Z,92859.00
2023-04-18T09:31:19.375Z,92849.00
2023-04-18T09:32:19.462Z,92847.00
2023-04-18T09:33:19.243Z,92847.00
2023-04-18T09:34:19.192Z,92843.00
2023-04-18T09:35:19.155Z,92843.00
2023-04-18T09:36:19.249Z,92839.00
2023-04-18T09:37:19.080Z,92843.00
2023-04-18T09:38:19.036Z,92845.00
2023-04-18T09:39:19.013Z,92843.00
2023-04-18T09:40:19.020Z,92845.00
2023-04-18T09:41:21.381Z,92843.00
2023-04-18T09:42:18.842Z,92843.00
2023-04-18T09:43:18.741Z,92839.00
2023-04-18T09:44:18.830Z,92841.00
2023-04-18T09:45:18.517Z,92841.00
2023-04-18T09:46:18.514Z,92837.00
2023-04-18T09:47:18.313Z,92837.00
2023-04-18T09:48:18.239Z,92837.00
2023-04-18T09:49:18.574Z,92836.00
2023-04-18T09:50:18.014Z,92836.00
2023-04-18T09:51:17.912Z,92834.00
2023-04-18T09:52:17.808Z,92836.00
2023-04-18T09:53:19.451Z,92834.00
2023-04-18T09:54:17.628Z,92832.00
2023-04-18T09:55:17.567Z,92832.00
2023-04-18T09:56:17.414Z,92832.00
2023-04-18T09:57:17.320Z,92832.00
2023-04-18T09:58:17.232Z,92832.00
2023-04-18T09:59:18.133Z,92830.00
2023-04-18T10:00:17.067Z,92828.00
2023-04-18T10:01:17.035Z,92828.00
2023-04-18T10:02:16.880Z,92828.00
2023-04-18T10:03:16.916Z,92824.00
2023-04-18T10:04:17.011Z,92824.00
2023-04-18T10:05:17.660Z,92820.00
2023-04-18T10:06:16.438Z,92820.00
2023-04-18T10:07:16.327Z,92820.00
2023-04-18T10:08:16.230Z,92822.00
2023-04-18T10:09:16.434Z,92824.00
2023-04-18T10:10:16.042Z,92818.00
2023-04-18T10:11:15.950Z,92820.00
2023-04-18T10:12:15.846Z,92822.00
2023-04-18T10:13:15.756Z,92816.00
2023-04-18T10:14:15.937Z,92820.00
2023-04-18T10:15:16.231Z,92818.00
2023-04-18T10:16:15.564Z,92816.00
2023-04-18T10:17:15.375Z,92816.00
2023-04-18T10:18:15.304Z,92816.00
2023-04-18T10:19:15.284Z,92814.00
2023-04-18T10:20:15.092Z,92808.00
2023-04-18T10:21:14.990Z,92808.00
2023-04-18T10:22:15.907Z,92806.00
2023-04-18T10:23:14.800Z,92808.00
2023-04-18T10:24:14.994Z,92806.00
2023-04-18T10:25:14.640Z,92804.00
2023-04-18T10:26:15.356Z,92802.00
2023-04-18T10:27:14.428Z,92804.00
2023-04-18T10:28:14.335Z,92802.00
2023-04-18T10:29:14.417Z,92802.00
2023-04-18T10:30:15.213Z,92800.00
2023-04-18T10:31:14.340Z,92800.00
2023-04-18T10:32:13.964Z,92804.00
2023-04-18T10:33:21.952Z,92802.00
2023-04-18T10:34:14.782Z,92802.00
2023-04-18T10:35:13.706Z,92802.00
2023-04-18T10:36:13.803Z,92800.00
2023-04-18T10:37:13.495Z,92798.00
2023-04-18T10:38:13.398Z,92800.00
2023-04-18T10:39:13.288Z,92800.00
2023-04-18T10:40:13.199Z,92796.00
2023-04-18T10:41:13.111Z,92796.00
2023-04-18T10:42:13.023Z,92798.00
2023-04-18T10:43:12.918Z,92796.00
2023-04-18T10:44:12.902Z,92794.00
2023-04-18T10:45:12.712Z,92794.00
2023-04-18T10:46:27.919Z,92794.00
2023-04-18T10:47:13.596Z,92790.00
2023-04-18T10:48:12.457Z,92789.00
2023-04-18T10:49:12.562Z,92789.00
2023-04-18T10:50:12.246Z,92789.00
2023-04-18T10:51:12.175Z,92787.00
2023-04-18T10:52:13.466Z,92787.00
2023-04-18T10:53:11.946Z,92787.00
2023-04-18T10:54:11.896Z,92783.00
2023-04-18T10:55:11.762Z,92785.00
2023-04-18T10:56:11.661Z,92781.00
2023-04-18T10:57:11.560Z,92779.00
2023-04-18T10:58:11.469Z,92779.00
2023-04-18T10:59:11.365Z,92777.00
2023-04-18T11:00:11.273Z,92777.00
2023-04-18T11:01:11.217Z,92777.00
2023-04-18T11:02:11.158Z,92775.00
2023-04-18T11:03:11.153Z,92777.00
2023-04-18T11:04:11.014Z,92773.00
2023-04-18T11:05:10.788Z,92775.00
2023-04-18T11:06:10.685Z,92773.00
2023-04-18T11:07:10.583Z,92771.00
2023-04-18T11:08:10.477Z,92771.00
2023-04-18T11:09:10.602Z,92771.00
2023-04-18T11:10:10.308Z,92767.00
2023-04-18T11:11:10.173Z,92767.00
2023-04-18T11:12:10.057Z,92765.00
2023-04-18T11:13:09.971Z,92769.00
2023-04-18T11:14:09.860Z,92767.00
2023-04-18T11:15:09.735Z,92767.00
2023-04-18T11:16:09.685Z,92769.00
2023-04-18T11:17:09.528Z,92767.00
2023-04-18T11:18:09.470Z,92765.00
2023-04-18T11:19:09.347Z,92761.00
2023-04-18T11:20:09.324Z,92761.00
2023-04-18T11:21:09.181Z,92761.00
2023-04-18T11:22:09.089Z,92759.00
2023-04-18T11:23:09.020Z,92759.00
2023-04-18T11:24:09.055Z,92757.00
2023-04-18T11:25:08.844Z,92759.00
2023-04-18T11:26:08.791Z,92755.00
2023-04-18T11:27:08.694Z,92757.00
2023-04-18T11:28:08.605Z,92757.00
2023-04-18T11:29:08.523Z,92755.00
2023-04-18T11:30:08.445Z,92761.00
2023-04-18T11:31:08.372Z,92759.00
2023-04-18T11:32:08.318Z,92757.00
2023-04-18T11:33:08.316Z,92755.00
2023-04-18T11:34:08.149Z,92759.00
2023-04-18T11:35:08.060Z,92757.00
2023-04-18T11:36:07.993Z,92755.00
2023-04-18T11:37:07.929Z,92753.00
2023-04-18T11:38:07.827Z,92753.00
2023-04-18T11:39:07.765Z,92751.00
2023-04-18T11:40:07.747Z,92751.00
2023-04-18T11:41:07.610Z,92751.00
2023-04-18T11:42:07.541Z,92749.00
2023-04-18T11:43:07.487Z,92751.00
2023-04-18T11:44:07.378Z,92751.00